Time;durP1;ratioP1;P1;durP2;ratioP2;P2;SDS_P1;SDS_P2;PMS_P1;PMS_P2;Temp;Humidity;BMP_temperature;BMP_pressure;BME280_temperature;BME280_humidity;BME280_pressure;Samples;Min_cycle;Max_cycle;Signal;HPM_P1;HPM_P2
2022/07/27 00:00:45;;;;;;;;;;;;;;;30.75;30.92;101355.69;4412909;32;20506;-67
2022/07/27 00:03:11;;;;;;;;;;;;;;;30.82;30.82;101363.69;4414446;32;19988;-67
2022/07/27 00:05:38;;;;;;;;;;;;;;;30.69;30.88;101358.72;4414563;32;19992;-67
2022/07/27 00:08:05;;;;;;;;;;;;;;;30.71;30.91;101358.91;4413635;32;20442;-67
2022/07/27 00:10:31;;;;;;;;;;;;;;;30.44;31.09;101353.78;4411735;32;19945;-67
2022/07/27 00:12:57;;;;;;;;;;;;;;;30.40;31.47;101345.41;4412720;32;19992;-67
2022/07/27 00:15:23;;;;;;;;;;;;;;;30.52;31.46;101346.69;4415553;32;20015;-67
2022/07/27 00:17:48;;;;;;;;;;;;;;;30.19;31.60;101349.59;4411819;32;19984;-67
2022/07/27 00:20:14;;;;;;;;;;;;;;;30.21;31.41;101356.41;4401670;32;20316;-67
2022/07/27 00:22:40;;;;;;;;;;;;;;;30.41;31.56;101349.88;4413944;32;19949;-67
2022/07/27 00:25:06;;;;;;;;;;;;;;;30.48;31.50;101349.19;4414633;32;20017;-67
2022/07/27 00:27:31;;;;;;;;;;;;;;;30.16;31.76;101344.88;4415770;32;20306;-67
2022/07/27 00:29:57;;;;;;;;;;;;;;;30.39;31.25;101337.25;4415723;32;20076;-67
2022/07/27 00:32:22;;;;;;;;;;;;;;;30.38;31.21;101347.31;4414426;32;20018;-67
2022/07/27 00:34:48;;;;;;;;;;;;;;;30.31;31.19;101336.38;4414874;32;19993;-67
2022/07/27 00:37:13;;;;;;;;;;;;;;;30.24;31.23;101332.03;4414628;32;19954;-66
2022/07/27 00:39:39;;;;;;;;;;;;;;;30.16;31.33;101339.84;4414376;32;19961;-67
2022/07/27 00:42:05;;;;;;;;;;;;;;;30.30;31.22;101340.62;4416998;32;19957;-67
2022/07/27 00:44:31;;;;;;;;;;;;;;;30.23;31.45;101321.78;4414471;32;19965;-67
2022/07/27 00:46:57;;;;;;;;;;;;;;;30.23;31.44;101321.78;4412577;32;19996;-67
2022/07/27 00:49:23;;;;;;;;;;;;;;;30.33;31.41;101327.88;4413494;32;20005;-67
2022/07/27 00:51:49;;;;;;;;;;;;;;;30.40;31.08;101327.97;4414370;32;20030;-67
2022/07/27 00:54:15;;;;;;;;;;;;;;;30.49;30.99;101324.59;4413593;32;20013;-67
2022/07/27 00:56:40;;;;;;;;;;;;;;;30.47;31.15;101327.25;4415536;32;19953;-67
2022/07/27 00:59:06;;;;;;;;;;;;;;;30.44;31.19;101324.72;4416181;32;20016;-67
2022/07/27 01:01:32;;;;;;;;;;;;;;;30.44;31.04;101324.72;4414973;32;19946;-67
2022/07/27 01:03:57;;;;;;;;;;;;;;;30.23;31.36;101326.78;4414323;32;20361;-67
2022/07/27 01:06:23;;;;;;;;;;;;;;;30.29;31.25;101325.34;4413408;32;20354;-67
2022/07/27 01:08:48;;;;;;;;;;;;;;;30.26;31.20;101325.66;4415428;32;19957;-67
2022/07/27 01:11:14;;;;;;;;;;;;;;;30.36;31.00;101324.63;4416007;32;19990;-67
2022/07/27 01:13:41;;;;;;;;;;;;;;;30.20;31.11;101327.91;4417251;32;20266;-67
2022/07/27 01:16:07;;;;;;;;;;;;;;;30.23;31.16;101330.50;4400473;32;20016;-67
2022/07/27 01:18:33;;;;;;;;;;;;;;;30.13;31.37;101314.06;4412773;32;20343;-67
2022/07/27 01:21:00;;;;;;;;;;;;;;;30.33;31.22;101322.84;4415628;32;20331;-67
2022/07/27 01:23:26;;;;;;;;;;;;;;;30.46;31.21;101324.91;4413234;32;19961;-67
2022/07/27 01:25:52;;;;;;;;;;;;;;;30.35;31.23;101323.09;4411721;32;20050;-67
2022/07/27 01:28:17;;;;;;;;;;;;;;;30.27;31.27;101321.41;4414173;32;19992;-67
2022/07/27 01:30:43;;;;;;;;;;;;;;;30.26;31.63;101319.88;4415821;32;19949;-67
2022/07/27 01:33:09;;;;;;;;;;;;;;;30.31;31.42;101313.91;4414038;32;19973;-67
2022/07/27 01:35:37;;;;;;;;;;;;;;;30.19;31.60;101315.50;4417683;32;20310;-67
2022/07/27 01:38:03;;;;;;;;;;;;;;;30.26;31.45;101316.97;4414396;32;20582;-67
2022/07/27 01:40:29;;;;;;;;;;;;;;;30.47;31.08;101306.94;4417320;32;19977;-67
2022/07/27 01:42:55;;;;;;;;;;;;;;;30.28;31.48;101312.16;4416746;32;20118;-67
2022/07/27 01:45:20;;;;;;;;;;;;;;;30.30;31.49;101311.56;4416905;32;19991;-67
2022/07/27 01:47:46;;;;;;;;;;;;;;;30.21;31.46;101309.94;4418928;32;20342;-67
2022/07/27 01:50:12;;;;;;;;;;;;;;;30.32;31.50;101315.50;4418266;32;19961;-67
2022/07/27 01:52:38;;;;;;;;;;;;;;;30.21;31.30;101309.16;4416664;32;19957;-67
2022/07/27 01:55:06;;;;;;;;;;;;;;;30.25;31.33;101306.69;4414971;32;19961;-67
2022/07/27 01:57:31;;;;;;;;;;;;;;;30.29;31.20;101305.00;4417731;32;20314;-67
2022/07/27 01:59:59;;;;;;;;;;;;;;;30.40;30.98;101306.88;4417468;32;19982;-67
2022/07/27 02:02:24;;;;;;;;;;;;;;;30.23;31.56;101310.16;4413811;32;19989;-67
2022/07/27 02:04:49;;;;;;;;;;;;;;;30.33;30.96;101316.25;4416284;32;19949;-67
2022/07/27 02:07:15;;;;;;;;;;;;;;;30.34;31.10;101312.03;4416617;32;19956;-67
2022/07/27 02:09:41;;;;;;;;;;;;;;;30.47;31.12;101306.16;4415939;32;20044;-68
2022/07/27 02:12:38;;;;;;;;;;;;;;;30.55;31.11;101307.00;4417356;32;20032;-68
2022/07/27 02:14:52;;;;;;;;;;;;;;;30.54;31.02;101306.25;4418230;32;20421;-67
2022/07/27 02:17:17;;;;;;;;;;;;;;;30.65;30.94;101293.56;4413932;32;20038;-68
2022/07/27 02:19:42;;;;;;;;;;;;;;;30.58;31.00;101282.62;4415311;32;20050;-67
2022/07/27 02:22:08;;;;;;;;;;;;;;;30.50;30.92;101282.56;4416307;32;20438;-68
2022/07/27 02:24:34;;;;;;;;;;;;;;;30.20;31.29;101288.06;4415853;32;19950;-68
2022/07/27 02:26:59;;;;;;;;;;;;;;;30.30;31.27;101288.34;4413649;32;19953;-67
2022/07/27 02:29:25;;;;;;;;;;;;;;;30.00;31.33;101285.06;4411413;32;19964;-68
2022/07/27 02:31:50;;;;;;;;;;;;;;;29.72;32.00;101281.97;4415612;32;19965;-67
2022/07/27 02:34:16;;;;;;;;;;;;;;;29.81;31.96;101281.53;4414612;32;20012;-68
2022/07/27 02:36:41;;;;;;;;;;;;;;;29.87;31.77;101282.97;4413519;32;19953;-68
2022/07/27 02:39:07;;;;;;;;;;;;;;;29.76;31.91;101280.28;4414463;32;20001;-68
2022/07/27 02:41:32;;;;;;;;;;;;;;;29.67;32.21;101274.97;4414124;32;20007;-68
2022/07/27 02:43:58;;;;;;;;;;;;;;;29.72;32.18;101279.06;4416912;32;20009;-67
2022/07/27 02:46:24;;;;;;;;;;;;;;;29.63;32.18;101277.41;4418029;32;20000;-67
2022/07/27 02:48:49;;;;;;;;;;;;;;;29.58;32.20;101277.50;4413358;32;20442;-67
2022/07/27 02:51:15;;;;;;;;;;;;;;;29.50;32.31;101267.91;4413885;32;20001;-68
2022/07/27 02:53:40;;;;;;;;;;;;;;;29.67;32.16;101269.19;4415626;32;20004;-67
2022/07/27 02:56:06;;;;;;;;;;;;;;;29.56;32.13;101268.56;4413943;32;20275;-68
2022/07/27 02:58:32;;;;;;;;;;;;;;;29.43;32.37;101265.69;4415329;32;20001;-68
2022/07/27 03:00:57;;;;;;;;;;;;;;;29.15;32.79;101254.66;4416799;32;19990;-68
2022/07/27 03:03:23;;;;;;;;;;;;;;;29.30;32.65;101259.91;4416983;32;19980;-68
2022/07/27 03:05:49;;;;;;;;;;;;;;;29.05;33.17;101256.41;4417867;32;19989;-68
2022/07/27 03:08:14;;;;;;;;;;;;;;;28.98;33.10;101257.84;4414337;32;19954;-68
2022/07/27 03:10:40;;;;;;;;;;;;;;;28.94;33.01;101254.50;4414524;32;20360;-68
2022/07/27 03:13:06;;;;;;;;;;;;;;;28.86;33.21;101252.78;4415088;32;20365;-68
2022/07/27 03:15:32;;;;;;;;;;;;;;;28.96;33.04;101251.06;4416923;32;20365;-68
2022/07/27 03:17:58;;;;;;;;;;;;;;;28.89;33.06;101249.56;4414301;32;20092;-68
2022/07/27 03:20:24;;;;;;;;;;;;;;;28.78;33.20;101241.06;4414667;32;20009;-67
2022/07/27 03:22:49;;;;;;;;;;;;;;;28.77;33.35;101254.00;4415672;32;19972;-68
2022/07/27 03:25:15;;;;;;;;;;;;;;;28.55;33.45;101257.28;4414518;32;19983;-67
2022/07/27 03:27:40;;;;;;;;;;;;;;;28.51;33.59;101253.16;4413266;32;20032;-67
2022/07/27 03:30:06;;;;;;;;;;;;;;;28.36;33.87;101247.06;4417066;32;21158;-67
2022/07/27 03:32:32;;;;;;;;;;;;;;;28.38;33.86;101253.84;4419152;32;19966;-68
2022/07/27 03:34:57;;;;;;;;;;;;;;;28.25;34.06;101250.13;4400627;32;19989;-68
2022/07/27 03:37:23;;;;;;;;;;;;;;;28.37;33.95;101248.59;4413734;32;20008;-67
2022/07/27 03:39:48;;;;;;;;;;;;;;;28.38;33.83;101250.94;4415038;32;19992;-67
2022/07/27 03:42:14;;;;;;;;;;;;;;;28.12;34.42;101242.16;4419502;32;20037;-67
2022/07/27 03:44:39;;;;;;;;;;;;;;;28.09;33.99;101251.94;4417577;32;20070;-68
2022/07/27 03:47:04;;;;;;;;;;;;;;;27.84;34.26;101238.09;4416724;32;20113;-68
2022/07/27 03:49:30;;;;;;;;;;;;;;;27.91;34.06;101246.94;4413317;32;19985;-67
2022/07/27 03:51:56;;;;;;;;;;;;;;;28.04;34.16;101252.81;4417714;32;20005;-68
2022/07/27 03:54:21;;;;;;;;;;;;;;;28.04;34.13;101246.25;4413631;32;20699;-67
2022/07/27 03:56:47;;;;;;;;;;;;;;;28.20;33.88;101253.91;4413297;32;20013;-67
2022/07/27 03:59:13;;;;;;;;;;;;;;;28.22;33.68;101249.12;4414348;32;20016;-67
2022/07/27 04:01:41;;;;;;;;;;;;;;;28.32;33.39;101258.94;4413267;32;19954;-67
2022/07/27 04:04:09;;;;;;;;;;;;;;;28.24;33.35;101251.44;4416184;32;20018;-67
2022/07/27 04:06:36;;;;;;;;;;;;;;;28.10;33.63;101249.84;4413532;32;19996;-67
2022/07/27 04:09:06;;;;;;;;;;;;;;;28.08;33.58;101256.19;4415987;32;20450;-67
2022/07/27 04:11:32;;;;;;;;;;;;;;;28.14;33.65;101250.31;4414035;32;20035;-67
2022/07/27 04:13:58;;;;;;;;;;;;;;;27.72;33.97;101251.94;4413882;32;20342;-67
2022/07/27 04:16:24;;;;;;;;;;;;;;;27.96;33.64;101256.87;4414929;32;20337;-67
2022/07/27 04:18:52;;;;;;;;;;;;;;;27.78;33.63;101257.63;4415427;32;19953;-67
2022/07/27 04:21:17;;;;;;;;;;;;;;;27.86;33.69;101255.72;4415814;32;19984;-67
2022/07/27 04:23:43;;;;;;;;;;;;;;;27.83;33.78;101251.00;4414290;32;19968;-67
2022/07/27 04:26:09;;;;;;;;;;;;;;;27.80;33.71;101252.88;4413234;32;20359;-67
2022/07/27 04:28:34;;;;;;;;;;;;;;;27.70;33.90;101263.25;4411977;32;20049;-67
2022/07/27 04:31:00;;;;;;;;;;;;;;;27.77;33.75;101262.66;4415128;32;19954;-67
2022/07/27 04:33:25;;;;;;;;;;;;;;;27.73;33.29;101262.16;4417254;32;20040;-67
2022/07/27 04:35:51;;;;;;;;;;;;;;;27.60;33.62;101262.06;4414191;32;20346;-67
2022/07/27 04:38:17;;;;;;;;;;;;;;;27.60;33.90;101256.28;4412670;32;20116;-68
2022/07/27 04:40:42;;;;;;;;;;;;;;;27.66;33.60;101257.00;4415893;32;20054;-67
2022/07/27 04:43:08;;;;;;;;;;;;;;;27.60;33.93;101258.38;4410888;32;19989;-67
2022/07/27 04:45:34;;;;;;;;;;;;;;;27.52;33.66;101264.00;4413597;32;20016;-67
2022/07/27 04:48:03;;;;;;;;;;;;;;;27.44;33.52;101265.16;4412501;32;20027;-67
2022/07/27 04:50:29;;;;;;;;;;;;;;;27.67;33.31;101263.56;4415353;32;19969;-67
2022/07/27 04:52:55;;;;;;;;;;;;;;;27.78;33.39;101263.41;4416713;32;19984;-67
2022/07/27 04:55:21;;;;;;;;;;;;;;;27.34;33.74;101253.22;4415731;32;19958;-67
2022/07/27 04:57:47;;;;;;;;;;;;;;;27.81;33.15;101254.44;4416009;32;20001;-67
2022/07/27 05:00:12;;;;;;;;;;;;;;;28.00;32.82;101263.13;4414016;32;20144;-67
2022/07/27 05:02:39;;;;;;;;;;;;;;;28.05;32.77;101265.97;4417857;32;20012;-67
2022/07/27 05:05:06;;;;;;;;;;;;;;;28.01;32.62;101264.72;4414684;32;19997;-67
2022/07/27 05:07:32;;;;;;;;;;;;;;;28.23;32.62;101265.16;4412988;32;20382;-67
2022/07/27 05:09:58;;;;;;;;;;;;;;;28.18;32.62;101259.44;4416976;32;20075;-67
2022/07/27 05:12:24;;;;;;;;;;;;;;;28.25;32.68;101265.38;4417557;32;19997;-67
2022/07/27 05:14:49;;;;;;;;;;;;;;;28.13;32.88;101269.78;4418653;32;19996;-68
2022/07/27 05:17:15;;;;;;;;;;;;;;;28.32;32.51;101261.06;4417441;32;20323;-67
2022/07/27 05:19:40;;;;;;;;;;;;;;;28.41;32.40;101267.22;4415646;32;19989;-67
2022/07/27 05:22:05;;;;;;;;;;;;;;;28.03;32.43;101267.81;4421955;32;19961;-67
2022/07/27 05:24:31;;;;;;;;;;;;;;;28.35;31.77;101263.63;4419406;32;20013;-67
2022/07/27 05:26:56;;;;;;;;;;;;;;;28.58;31.97;101273.56;4414767;32;19989;-67
2022/07/27 05:29:22;;;;;;;;;;;;;;;28.69;31.92;101276.25;4415790;32;19958;-67
2022/07/27 05:31:47;;;;;;;;;;;;;;;28.75;31.73;101279.84;4415169;32;20004;-67
2022/07/27 05:34:13;;;;;;;;;;;;;;;28.53;31.88;101277.31;4415834;32;19958;-67
2022/07/27 05:36:38;;;;;;;;;;;;;;;28.69;32.22;101272.59;4415729;32;20296;-68
2022/07/27 05:39:04;;;;;;;;;;;;;;;28.76;31.98;101272.72;4415145;32;19985;-68
2022/07/27 05:41:29;;;;;;;;;;;;;;;28.82;31.88;101276.31;4418004;32;19996;-68
2022/07/27 05:43:54;;;;;;;;;;;;;;;28.79;31.86;101271.63;4420079;32;20001;-68
2022/07/27 05:46:20;;;;;;;;;;;;;;;28.72;32.14;101266.47;4413817;32;19953;-67
2022/07/27 05:48:46;;;;;;;;;;;;;;;28.87;31.93;101265.97;4418159;32;20036;-68
2022/07/27 05:51:11;;;;;;;;;;;;;;;28.63;32.13;101272.69;4417842;32;19953;-68
2022/07/27 05:53:37;;;;;;;;;;;;;;;28.63;32.23;101269.03;4419028;32;20266;-68
2022/07/27 05:56:03;;;;;;;;;;;;;;;28.66;32.44;101265.78;4414908;32;19953;-68
2022/07/27 05:58:29;;;;;;;;;;;;;;;28.80;32.36;101269.50;4416522;32;20008;-68
2022/07/27 06:00:55;;;;;;;;;;;;;;;28.80;32.03;101267.37;4419347;32;20237;-68
2022/07/27 06:03:21;;;;;;;;;;;;;;;28.89;31.98;101266.16;4418527;32;19999;-68
2022/07/27 06:05:47;;;;;;;;;;;;;;;29.18;31.82;101275.94;4414144;32;19992;-66
2022/07/27 06:08:13;;;;;;;;;;;;;;;29.42;31.52;101272.84;4415910;32;20523;-67
2022/07/27 06:10:40;;;;;;;;;;;;;;;29.67;31.01;101282.91;4417623;32;19965;-68
2022/07/27 06:13:07;;;;;;;;;;;;;;;29.90;30.57;101281.06;4417605;32;20004;-68
2022/07/27 06:15:33;;;;;;;;;;;;;;;30.24;30.27;101273.19;4416281;32;20161;-67
2022/07/27 06:17:58;;;;;;;;;;;;;;;30.36;29.90;101280.28;4416156;32;19998;-68
2022/07/27 06:20:24;;;;;;;;;;;;;;;30.51;29.68;101277.53;4415571;32;20008;-68
2022/07/27 06:22:51;;;;;;;;;;;;;;;30.69;29.52;101277.34;4417427;32;20013;-67
2022/07/27 06:25:18;;;;;;;;;;;;;;;30.88;28.97;101279.25;4416934;32;20697;-67
2022/07/27 06:27:43;;;;;;;;;;;;;;;31.08;28.66;101276.34;4417125;32;19992;-67
2022/07/27 06:30:09;;;;;;;;;;;;;;;31.24;28.30;101280.94;4415802;32;19976;-67
2022/07/27 06:32:35;;;;;;;;;;;;;;;31.40;28.08;101278.91;4415064;32;19997;-68
2022/07/27 06:35:01;;;;;;;;;;;;;;;31.55;28.02;101276.09;4416121;32;19997;-68
2022/07/27 06:37:28;;;;;;;;;;;;;;;31.34;28.02;101279.09;4415254;32;20292;-67
2022/07/27 06:39:54;;;;;;;;;;;;;;;31.59;28.11;101288.16;4415293;32;19959;-68
2022/07/27 06:42:19;;;;;;;;;;;;;;;31.80;27.75;101280.09;4419483;32;20057;-67
2022/07/27 06:44:44;;;;;;;;;;;;;;;31.71;27.86;101278.53;4415941;32;20338;-67
2022/07/27 06:47:10;;;;;;;;;;;;;;;31.83;27.14;101276.88;4415080;32;20020;-67
2022/07/27 06:49:35;;;;;;;;;;;;;;;31.77;27.79;101284.97;4414524;32;19998;-67
2022/07/27 06:52:01;;;;;;;;;;;;;;;31.83;27.21;101290.63;4417164;32;20276;-68
2022/07/27 06:54:26;;;;;;;;;;;;;;;31.81;27.59;101285.38;4415954;32;20004;-67
2022/07/27 06:56:52;;;;;;;;;;;;;;;31.97;27.38;101287.00;4415949;32;20056;-68
2022/07/27 06:59:18;;;;;;;;;;;;;;;31.62;27.30;101287.00;4417194;32;20026;-67
2022/07/27 07:01:43;;;;;;;;;;;;;;;31.95;27.18;101286.81;4417681;32;20271;-67
2022/07/27 07:04:08;;;;;;;;;;;;;;;31.89;27.36;101292.03;4415153;32;20029;-67
2022/07/27 07:06:34;;;;;;;;;;;;;;;31.80;27.36;101289.62;4413183;32;19957;-67
2022/07/27 07:08:59;;;;;;;;;;;;;;;31.77;27.50;101284.97;4416606;32;19964;-67
2022/07/27 07:11:25;;;;;;;;;;;;;;;32.26;26.88;101285.56;4416564;32;19980;-67
2022/07/27 07:13:51;;;;;;;;;;;;;;;32.29;26.98;101286.53;4416038;32;19953;-67
2022/07/27 07:16:16;;;;;;;;;;;;;;;32.26;27.16;101285.56;4415502;32;20345;-67
2022/07/27 07:18:41;;;;;;;;;;;;;;;32.56;26.57;101291.50;4415693;32;19957;-68
2022/07/27 07:21:07;;;;;;;;;;;;;;;32.95;26.20;101287.28;4417393;32;19981;-68
2022/07/27 07:23:33;;;;;;;;;;;;;;;33.06;26.12;101292.72;4416080;32;20001;-68
2022/07/27 07:25:58;;;;;;;;;;;;;;;32.91;25.60;101291.97;4413774;32;20020;-68
2022/07/27 07:28:24;;;;;;;;;;;;;;;32.83;26.00;101291.13;4414435;32;20370;-68
2022/07/27 07:30:50;;;;;;;;;;;;;;;32.78;25.82;101281.22;4414445;32;20310;-68
2022/07/27 07:33:15;;;;;;;;;;;;;;;33.06;25.72;101283.19;4413960;32;19986;-67
2022/07/27 07:35:41;;;;;;;;;;;;;;;32.83;25.92;101289.00;4416091;32;19964;-67
2022/07/27 07:38:06;;;;;;;;;;;;;;;33.16;25.73;101292.94;4414953;32;20436;-68
2022/07/27 07:40:32;;;;;;;;;;;;;;;33.10;25.82;101293.09;4415552;32;19998;-68
2022/07/27 07:42:59;;;;;;;;;;;;;;;32.68;25.95;101298.50;4417977;32;20343;-67
2022/07/27 07:45:25;;;;;;;;;;;;;;;32.49;26.39;101289.34;4415838;32;20068;-67
2022/07/27 07:47:51;;;;;;;;;;;;;;;32.10;26.78;101295.63;4413903;32;20054;-68
2022/07/27 07:50:17;;;;;;;;;;;;;;;32.44;26.33;101295.34;4412824;32;19975;-67
2022/07/27 07:52:42;;;;;;;;;;;;;;;32.30;26.60;101288.88;4418796;32;19964;-67
2022/07/27 07:55:08;;;;;;;;;;;;;;;32.53;26.58;101292.66;4413245;32;19993;-68
2022/07/27 07:57:34;;;;;;;;;;;;;;;32.67;26.67;101294.03;4414482;32;19992;-67
2022/07/27 08:00:00;;;;;;;;;;;;;;;32.59;26.49;101293.25;4413959;32;20004;-68
2022/07/27 08:02:25;;;;;;;;;;;;;;;32.74;26.36;101288.78;4415915;32;20024;-68
2022/07/27 08:04:51;;;;;;;;;;;;;;;32.83;26.25;101296.97;4415418;32;20374;-67
2022/07/27 08:07:16;;;;;;;;;;;;;;;32.99;26.00;101301.47;4412709;32;19958;-68
2022/07/27 08:09:43;;;;;;;;;;;;;;;33.08;25.92;101306.72;4414442;32;20032;-68
2022/07/27 08:12:08;;;;;;;;;;;;;;;33.00;25.86;101311.78;4414562;32;20014;-68
2022/07/27 08:14:35;;;;;;;;;;;;;;;33.27;24.94;101312.94;4416752;32;20385;-68
2022/07/27 08:17:00;;;;;;;;;;;;;;;33.78;24.86;101310.53;4415459;32;19972;-68
2022/07/27 08:19:26;;;;;;;;;;;;;;;33.66;24.96;101315.25;4413022;32;20017;-68
2022/07/27 08:21:51;;;;;;;;;;;;;;;33.42;25.31;101312.94;4416597;32;20075;-68
2022/07/27 08:24:17;;;;;;;;;;;;;;;33.12;25.66;101318.78;4414235;32;19981;-68
2022/07/27 08:26:42;;;;;;;;;;;;;;;33.53;25.22;101312.56;4412684;32;19996;-68
2022/07/27 08:29:08;;;;;;;;;;;;;;;33.38;25.29;101316.25;4414663;32;20001;-68
2022/07/27 08:31:34;;;;;;;;;;;;;;;33.27;24.99;101319.56;4412886;32;19997;-68
2022/07/27 08:34:00;;;;;;;;;;;;;;;33.70;25.20;101321.44;4411283;32;20444;-68
2022/07/27 08:36:25;;;;;;;;;;;;;;;33.12;25.64;101319.56;4415297;32;19989;-68
2022/07/27 08:38:50;;;;;;;;;;;;;;;33.38;24.98;101322.09;4416048;32;20033;-68
2022/07/27 08:41:17;;;;;;;;;;;;;;;33.55;25.01;101318.56;4413741;32;20155;-68
2022/07/27 08:43:44;;;;;;;;;;;;;;;33.95;24.58;101323.16;4417850;32;20745;-69
2022/07/27 08:46:10;;;;;;;;;;;;;;;33.95;24.62;101326.06;4418637;32;20030;-68
2022/07/27 08:48:37;;;;;;;;;;;;;;;34.31;24.13;101317.75;4416920;32;20399;-68
2022/07/27 08:51:03;;;;;;;;;;;;;;;34.52;24.01;101323.31;4418594;32;20009;-68
2022/07/27 08:53:31;;;;;;;;;;;;;;;34.41;24.16;101326.66;4417331;32;19949;-68
2022/07/27 08:55:56;;;;;;;;;;;;;;;34.26;24.04;101323.78;4416663;32;19970;-68
2022/07/27 08:58:22;;;;;;;;;;;;;;;33.97;24.04;101325.50;4416784;32;20409;-68
2022/07/27 09:00:49;;;;;;;;;;;;;;;33.83;24.18;101315.37;4418327;32;20020;-68
2022/07/27 09:03:15;;;;;;;;;;;;;;;34.12;24.08;101313.75;4416228;32;20317;-68
2022/07/27 09:05:42;;;;;;;;;;;;;;;34.52;23.49;101314.53;4415705;32;19967;-68
2022/07/27 09:08:09;;;;;;;;;;;;;;;33.91;23.89;101319.09;4419523;32;20210;-68
2022/07/27 09:10:36;;;;;;;;;;;;;;;34.66;23.30;101312.09;4416786;32;19996;-68
2022/07/27 09:13:22;;;;;;;;;;;;;;;35.19;23.00;101313.28;4416301;32;20820;-68
2022/07/27 09:15:50;;;;;;;;;;;;;;;35.13;23.26;101309.81;4417855;32;20029;-68
2022/07/27 09:18:17;;;;;;;;;;;;;;;35.77;22.01;101300.78;4417949;32;19999;-68
2022/07/27 09:20:42;;;;;;;;;;;;;;;36.01;22.07;101293.28;4416102;32;20012;-68
2022/07/27 09:23:08;;;;;;;;;;;;;;;36.66;21.47;101297.28;4418725;32;20028;-68
2022/07/27 09:25:36;;;;;;;;;;;;;;;36.46;21.46;101288.97;4416532;32;20013;-68
2022/07/27 09:28:02;;;;;;;;;;;;;;;37.07;21.02;101293.31;4416942;32;20037;-68
2022/07/27 09:30:27;;;;;;;;;;;;;;;37.13;20.96;101296.72;4415099;32;20041;-70
2022/07/27 09:35:32;;;;;;;;;;;;;;;38.32;19.86;101289.12;3948251;32;15824445;-69
2022/07/27 09:38:17;;;;;;;;;;;;;;;38.32;19.86;101289.12;4435655;32;19959;-69
2022/07/27 09:40:45;;;;;;;;;;;;;;;37.56;20.28;101292.81;4432844;32;20225;-69
2022/07/27 09:43:12;;;;;;;;;;;;;;;37.39;20.40;101292.19;4434509;32;20290;-69
2022/07/27 09:45:38;;;;;;;;;;;;;;;37.46;20.33;101283.22;4434766;32;19965;-68
2022/07/27 09:48:12;;;;;;;;;;;;;;;37.31;20.25;101285.69;4435006;32;19997;-69
2022/07/27 09:50:40;;;;;;;;;;;;;;;37.10;20.59;101286.22;4432684;32;19972;-69
2022/07/27 09:53:14;;;;;;;;;;;;;;;37.07;20.60;101287.44;4433172;32;20037;-68
2022/07/27 09:55:41;;;;;;;;;;;;;;;37.24;20.38;101283.66;4432977;32;20354;-69
2022/07/27 09:58:07;;;;;;;;;;;;;;;36.68;20.35;101282.00;4431985;32;20004;-68
2022/07/27 10:00:32;;;;;;;;;;;;;;;36.88;20.14;101280.72;4432662;32;20698;-69
2022/07/27 10:02:58;;;;;;;;;;;;;;;37.30;19.57;101275.31;4433569;32;20001;-69
2022/07/27 10:05:24;;;;;;;;;;;;;;;37.22;19.37;101278.41;4431506;32;19953;-69
2022/07/27 10:07:51;;;;;;;;;;;;;;;37.85;19.23;101273.06;4434071;32;20007;-69
2022/07/27 10:10:16;;;;;;;;;;;;;;;37.79;19.37;101275.53;4433102;32;20423;-69
2022/07/27 10:12:43;;;;;;;;;;;;;;;38.35;19.11;101273.19;4433174;32;20424;-69
2022/07/27 10:15:11;;;;;;;;;;;;;;;38.40;18.46;101272.06;4433738;32;19996;-69
2022/07/27 10:17:37;;;;;;;;;;;;;;;38.83;17.82;101270.09;4432460;32;19994;-69
2022/07/27 10:20:07;;;;;;;;;;;;;;;39.14;17.52;101270.87;4433142;32;20051;-69
2022/07/27 10:22:52;;;;;;;;;;;;;;;39.20;17.43;101277.97;4432678;32;20395;-68
2022/07/27 10:25:22;;;;;;;;;;;;;;;38.42;17.88;101272.22;4434504;32;20021;-68
2022/07/27 10:28:08;;;;;;;;;;;;;;;38.67;17.56;101266.75;4434184;32;20018;-69
2022/07/27 10:30:34;;;;;;;;;;;;;;;38.98;17.52;101264.59;4434961;32;19957;-68
2022/07/27 10:33:02;;;;;;;;;;;;;;;38.86;17.58;101272.53;4433502;32;20392;-68
2022/07/27 10:35:31;;;;;;;;;;;;;;;39.23;17.43;101267.87;4432228;32;20342;-69
2022/07/27 10:38:14;;;;;;;;;;;;;;;39.29;17.19;101276.34;4430081;32;19989;-68
2022/07/27 10:40:40;;;;;;;;;;;;;;;38.83;16.45;101262.00;4430797;32;20481;-68
2022/07/27 10:43:07;;;;;;;;;;;;;;;39.15;15.93;101258.47;4433599;32;19969;-68
2022/07/27 10:45:39;;;;;;;;;;;;;;;40.02;15.76;101258.59;4429407;32;20331;-68
2022/07/27 10:48:04;;;;;;;;;;;;;;;40.17;15.03;101253.00;4423456;32;20045;-69
2022/07/27 10:50:30;;;;;;;;;;;;;;;40.45;14.67;101251.16;4423262;32;20458;-69
2022/07/27 10:52:57;;;;;;;;;;;;;;;41.30;14.41;101255.97;4423676;32;19996;-68
2022/07/27 11:03:24;;;;;;;;;;;;;;;42.25;13.67;101253.56;3961872;32;15716784;-69
2022/07/27 11:05:54;;;;;;;;;;;;;;;42.25;13.67;101253.56;4447069;32;20023;-69
2022/07/27 11:08:23;;;;;;;;;;;;;;;41.83;13.79;101248.09;4448391;32;20008;-69
2022/07/27 11:10:49;;;;;;;;;;;;;;;41.28;14.04;101244.00;4448871;32;19953;-69
2022/07/27 11:13:17;;;;;;;;;;;;;;;41.10;14.10;101239.94;4448601;32;19969;-69
2022/07/27 11:15:49;;;;;;;;;;;;;;;41.26;13.86;101243.87;4447487;32;20381;-69
2022/07/27 11:18:15;;;;;;;;;;;;;;;40.88;14.30;101255.44;4445793;32;20298;-69
2022/07/27 11:20:41;;;;;;;;;;;;;;;41.21;13.87;101236.19;4450885;32;19964;-69
2022/07/27 11:23:22;;;;;;;;;;;;;;;40.81;14.32;101233.66;4449358;32;19993;-69
2022/07/27 11:26:02;;;;;;;;;;;;;;;40.94;14.05;101230.03;4447178;32;20000;-69
2022/07/27 11:28:29;;;;;;;;;;;;;;;41.37;13.91;101225.34;4447537;32;20005;-69
2022/07/27 11:30:55;;;;;;;;;;;;;;;42.00;13.35;101220.25;4446029;32;19963;-69
2022/07/27 11:33:21;;;;;;;;;;;;;;;42.78;12.87;101222.59;4444641;32;20016;-68
2022/07/27 11:35:54;;;;;;;;;;;;;;;43.12;12.61;101231.81;4449216;32;20018;-70
2022/07/27 11:38:20;;;;;;;;;;;;;;;43.16;12.58;101232.03;4449539;32;19962;-70
2022/07/27 11:40:50;;;;;;;;;;;;;;;43.62;12.16;101222.66;4446917;32;19957;-69
2022/07/27 11:43:35;;;;;;;;;;;;;;;44.17;11.38;101221.75;4447645;32;20259;-68
2022/07/27 11:49:01;;;;;;;;;;;;;;;43.65;11.47;101215.38;3951056;32;15729364;-68
2022/07/27 11:51:27;;;;;;;;;;;;;;;43.65;11.47;101215.38;4435481;32;20017;-68
2022/07/27 11:53:56;;;;;;;;;;;;;;;43.15;11.66;101209.78;4432703;32;20075;-68
2022/07/27 11:56:24;;;;;;;;;;;;;;;43.65;11.50;101201.31;4434590;32;20002;-68
2022/07/27 11:59:06;;;;;;;;;;;;;;;43.23;11.76;101210.19;4434377;32;19969;-68
2022/07/27 12:01:33;;;;;;;;;;;;;;;43.35;11.60;101201.94;4437468;32;20264;-69
2022/07/27 12:04:07;;;;;;;;;;;;;;;42.86;11.80;101201.53;4432773;32;20352;-69
2022/07/27 12:06:36;;;;;;;;;;;;;;;42.84;11.69;101202.19;4432258;32;20125;-69
2022/07/27 12:09:02;;;;;;;;;;;;;;;43.00;11.99;101200.09;4435600;32;19968;-69
2022/07/27 12:11:29;;;;;;;;;;;;;;;42.64;12.22;101200.28;4433651;32;19993;-69
2022/07/27 12:13:57;;;;;;;;;;;;;;;42.14;12.14;101186.34;4435776;32;20458;-69
2022/07/27 12:16:22;;;;;;;;;;;;;;;42.57;11.86;101192.47;4434401;32;19949;-69
2022/07/27 12:18:48;;;;;;;;;;;;;;;43.17;11.54;101192.87;4430961;32;20363;-68
2022/07/27 12:21:15;;;;;;;;;;;;;;;42.82;11.94;101189.47;4434687;32;19993;-69
2022/07/27 12:23:48;;;;;;;;;;;;;;;42.36;12.20;101184.66;4434598;32;19977;-69
2022/07/27 12:26:18;;;;;;;;;;;;;;;41.67;12.74;101178.38;4433694;32;20889;-69
2022/07/27 12:28:43;;;;;;;;;;;;;;;42.07;12.35;101180.75;4431604;32;19961;-69
2022/07/27 12:31:16;;;;;;;;;;;;;;;42.75;12.02;101188.38;4435573;32;19992;-69
2022/07/27 12:33:42;;;;;;;;;;;;;;;41.71;12.76;101179.37;4433471;32;19967;-69
2022/07/27 12:36:08;;;;;;;;;;;;;;;41.73;12.60;101188.38;4436005;32;20225;-69
2022/07/27 12:38:49;;;;;;;;;;;;;;;42.27;12.42;101173.03;4433767;32;20008;-69
2022/07/27 12:41:23;;;;;;;;;;;;;;;42.12;12.64;101173.66;4433902;32;19967;-69
2022/07/27 12:44:09;;;;;;;;;;;;;;;42.15;12.60;101170.16;4435829;32;20437;-69
2022/07/27 12:46:52;;;;;;;;;;;;;;;42.36;12.62;101178.00;4435688;32;19987;-69